createdAt,value
2023-04-15T00:02:26.419Z,68.35
2023-04-15T00:04:58.593Z,68.09
2023-04-15T00:07:31.711Z,67.83
2023-04-15T00:10:05.507Z,67.49
2023-04-15T00:12:38.101Z,67.46
2023-04-15T00:15:12.708Z,67.78
2023-04-15T00:17:44.896Z,67.64
2023-04-15T00:20:17.699Z,67.24
2023-04-15T00:22:49.873Z,67.74
2023-04-15T00:25:22.243Z,67.97
2023-04-15T00:27:54.465Z,68.23
2023-04-15T00:30:26.891Z,67.98
2023-04-15T00:32:59.664Z,68.51
2023-04-15T00:35:32.810Z,68.33
2023-04-15T00:38:05.777Z,68.54
2023-04-15T00:40:38.753Z,68.26
2023-04-15T00:43:11.209Z,68.57
2023-04-15T00:45:43.727Z,68.45
2023-04-15T00:48:17.586Z,67.78
2023-04-15T00:50:50.339Z,68.10
2023-04-15T00:53:22.900Z,67.64
2023-04-15T00:55:55.541Z,67.24
2023-04-15T00:58:28.128Z,67.38
2023-04-15T01:01:01.505Z,67.39
2023-04-15T01:03:35.577Z,67.75
2023-04-15T01:06:08.572Z,68.35
2023-04-15T01:08:41.499Z,68.31
2023-04-15T01:11:15.901Z,67.77
2023-04-15T01:13:48.950Z,67.38
2023-04-15T01:16:22.814Z,67.67
2023-04-15T01:18:55.374Z,68.14
2023-04-15T01:21:30.061Z,67.84
2023-04-15T01:24:03.318Z,68.12
2023-04-15T01:26:35.930Z,68.32
2023-04-15T01:29:08.457Z,68.46
2023-04-15T01:31:40.959Z,68.94
2023-04-15T01:34:13.066Z,68.09
2023-04-15T01:36:45.436Z,68.03
2023-04-15T01:39:17.809Z,68.51
2023-04-15T01:41:50.304Z,67.90
2023-04-15T01:44:22.723Z,67.98
2023-04-15T01:46:55.434Z,67.31
2023-04-15T01:49:27.699Z,67.91
2023-04-15T01:51:59.843Z,68.07
2023-04-15T01:54:32.433Z,67.83
2023-04-15T01:57:05.008Z,68.41
2023-04-15T01:59:37.390Z,68.24
2023-04-15T02:02:10.845Z,67.76
2023-04-15T02:04:43.363Z,68.24
2023-04-15T02:07:15.843Z,68.28
2023-04-15T02:09:48.125Z,69.89
2023-04-15T02:12:21.172Z,69.28
2023-04-15T02:14:53.476Z,69.34
2023-04-15T02:17:26.927Z,69.27
2023-04-15T02:20:00.170Z,69.36
2023-04-15T02:22:32.855Z,70.74
2023-04-15T02:25:05.664Z,70.38
2023-04-15T02:27:38.332Z,70.23
2023-04-15T02:30:11.445Z,69.16
2023-04-15T02:32:45.442Z,68.97
2023-04-15T02:35:19.949Z,69.21
2023-04-15T02:37:52.049Z,69.15
2023-04-15T02:40:24.468Z,69.14
2023-04-15T02:42:56.714Z,68.92
2023-04-15T02:45:29.153Z,69.01
2023-04-15T02:48:06.449Z,69.33
2023-04-15T02:50:39.906Z,70.08
2023-04-15T02:53:14.739Z,70.16
2023-04-15T02:55:47.273Z,70.85
2023-04-15T02:58:19.905Z,71.50
2023-04-15T03:00:52.129Z,71.32
2023-04-15T03:03:24.636Z,71.01
2023-04-15T03:05:57.246Z,71.81
2023-04-15T03:08:29.670Z,72.61
2023-04-15T03:11:02.761Z,72.68
2023-04-15T03:13:35.253Z,72.87
2023-04-15T03:16:13.831Z,72.48
2023-04-15T03:18:47.369Z,72.65
2023-04-15T03:21:20.064Z,73.27
2023-04-15T03:23:53.434Z,73.29
2023-04-15T03:26:30.491Z,74.17
2023-04-15T03:29:06.640Z,73.81
2023-04-15T03:31:39.209Z,74.43
2023-04-15T03:34:11.724Z,74.45
2023-04-15T03:36:43.867Z,74.17
2023-04-15T03:39:16.048Z,73.75
2023-04-15T03:41:48.412Z,74.12
2023-04-15T03:44:21.096Z,74.26
2023-04-15T03:46:53.750Z,73.95
2023-04-15T03:49:26.448Z,74.03
2023-04-15T03:51:58.563Z,74.42
2023-04-15T03:54:31.137Z,74.23
2023-04-15T03:57:03.454Z,74.51
2023-04-15T03:59:35.730Z,74.70
2023-04-15T04:02:08.278Z,75.05
2023-04-15T04:04:40.899Z,75.03
2023-04-15T04:07:18.030Z,75.48
2023-04-15T04:09:50.795Z,75.48
2023-04-15T04:12:23.072Z,75.98
2023-04-15T04:14:55.768Z,75.98
2023-04-15T04:17:28.070Z,76.33
2023-04-15T04:20:01.025Z,75.82
2023-04-15T04:22:33.531Z,75.95
2023-04-15T04:25:06.350Z,76.39
2023-04-15T04:27:38.796Z,76.61
2023-04-15T04:30:12.668Z,76.30
2023-04-15T04:32:45.048Z,76.09
2023-04-15T04:35:17.582Z,75.75
2023-04-15T04:37:50.101Z,75.52
2023-04-15T04:40:23.059Z,75.75
2023-04-15T04:42:56.092Z,76.69
2023-04-15T04:45:28.754Z,76.62
2023-04-15T04:48:01.478Z,77.32
2023-04-15T04:50:35.005Z,76.56
2023-04-15T04:53:07.925Z,76.84
2023-04-15T04:55:40.746Z,76.59
2023-04-15T04:58:12.856Z,76.15
2023-04-15T05:00:45.157Z,77.11
2023-04-15T05:03:17.772Z,76.91
2023-04-15T05:05:50.939Z,77.11
2023-04-15T05:08:23.737Z,77.59
2023-04-15T05:10:56.413Z,77.19
2023-04-15T05:13:30.057Z,76.98
2023-04-15T05:16:02.773Z,77.76
2023-04-15T05:18:35.507Z,77.23
2023-04-15T05:21:08.553Z,76.70
2023-04-15T05:23:41.335Z,76.78
2023-04-15T05:26:13.735Z,76.62
2023-04-15T05:28:46.298Z,77.09
2023-04-15T05:31:18.901Z,77.50
2023-04-15T05:33:51.744Z,77.44
2023-04-15T05:36:26.201Z,77.81
2023-04-15T05:38:58.865Z,77.90
2023-04-15T05:41:31.957Z,77.78
2023-04-15T05:44:04.535Z,78.46
2023-04-15T05:46:37.087Z,78.29
2023-04-15T05:49:09.956Z,78.32
2023-04-15T05:51:42.740Z,78.55
2023-04-15T05:54:14.868Z,78.20
2023-04-15T05:56:47.385Z,78.23
2023-04-15T05:59:20.079Z,78.84
2023-04-15T06:01:53.771Z,78.50
2023-04-15T06:04:26.244Z,78.31
2023-04-15T06:06:58.694Z,77.84
2023-04-15T06:09:31.084Z,78.22
2023-04-15T06:12:04.024Z,78.53
2023-04-15T06:14:36.291Z,78.39
2023-04-15T06:17:08.578Z,78.43
2023-04-15T06:19:41.469Z,78.43
2023-04-15T06:22:14.036Z,78.68
2023-04-15T06:24:46.047Z,79.80
2023-04-15T06:27:18.767Z,79.47
2023-04-15T06:29:51.053Z,79.97
2023-04-15T06:32:23.413Z,80.70
2023-04-15T06:34:55.656Z,79.58
2023-04-15T06:37:27.778Z,79.09
2023-04-15T06:40:00.188Z,79.38
2023-04-15T06:42:32.537Z,79.52
2023-04-15T06:45:05.549Z,80.33
2023-04-15T06:47:37.715Z,80.09
2023-04-15T06:50:11.592Z,80.81
2023-04-15T06:52:43.950Z,80.63
2023-04-15T06:55:16.378Z,81.07
2023-04-15T06:57:48.488Z,80.41
2023-04-15T07:00:22.417Z,81.20
2023-04-15T07:02:55.412Z,80.72
2023-04-15T07:05:27.957Z,80.10
2023-04-15T07:08:00.523Z,80.25
2023-04-15T07:10:32.769Z,80.26
2023-04-15T07:13:05.737Z,80.23
2023-04-15T07:15:37.878Z,80.20
2023-04-15T07:18:10.841Z,80.15
2023-04-15T07:20:43.657Z,80.33
2023-04-15T07:23:16.561Z,79.55
2023-04-15T07:25:50.764Z,79.91
2023-04-15T07:28:23.298Z,79.65
2023-04-15T07:30:57.120Z,79.86
2023-04-15T07:33:29.476Z,80.16
2023-04-15T07:36:01.780Z,79.75
2023-04-15T07:38:35.180Z,80.05
2023-04-15T07:41:07.630Z,80.06
2023-04-15T07:43:40.049Z,80.40
2023-04-15T07:46:12.353Z,80.58
2023-04-15T07:48:44.678Z,80.07
2023-04-15T07:51:17.765Z,80.08
2023-04-15T07:53:50.874Z,80.13
2023-04-15T07:56:23.252Z,80.75
2023-04-15T07:58:55.558Z,80.57
2023-04-15T08:01:27.839Z,80.39
2023-04-15T08:04:00.571Z,80.52
2023-04-15T08:06:33.328Z,80.74
2023-04-15T08:09:05.502Z,80.23
2023-04-15T08:11:38.236Z,80.43
2023-04-15T08:14:10.610Z,80.38
2023-04-15T08:16:42.813Z,80.77
2023-04-15T08:19:15.287Z,80.88
2023-04-15T08:21:47.944Z,80.43
2023-04-15T08:24:20.918Z,80.67
2023-04-15T08:26:53.153Z,80.67
2023-04-15T08:29:25.200Z,80.35
2023-04-15T08:31:57.794Z,80.58
2023-04-15T08:34:30.847Z,80.65
2023-04-15T08:37:02.885Z,80.82
2023-04-15T08:39:35.474Z,80.89
2023-04-15T08:42:12.889Z,80.98
2023-04-15T08:44:47.807Z,80.77
2023-04-15T08:47:24.937Z,80.67
2023-04-15T08:49:59.385Z,81.19
2023-04-15T08:52:34.054Z,81.23
2023-04-15T08:55:06.245Z,81.30
2023-04-15T08:57:39.865Z,81.53
2023-04-15T09:00:14.165Z,81.75
2023-04-15T09:02:46.957Z,81.12
2023-04-15T09:05:21.617Z,81.55
2023-04-15T09:07:54.934Z,82.03
2023-04-15T09:10:27.720Z,82.52
2023-04-15T09:13:00.636Z,82.78
2023-04-15T09:15:34.018Z,83.38
2023-04-15T09:18:07.176Z,82.11
2023-04-15T09:20:43.580Z,83.25
2023-04-15T09:23:17.636Z,82.85
2023-04-15T09:25:51.262Z,82.40
2023-04-15T09:28:28.201Z,82.27
2023-04-15T09:31:01.993Z,81.54
2023-04-15T09:33:34.413Z,81.47
2023-04-15T09:36:08.085Z,81.12
2023-04-15T09:38:57.607Z,79.16
2023-04-15T09:41:30.792Z,76.84
2023-04-15T09:44:03.134Z,75.28
2023-04-15T09:46:48.045Z,74.86
2023-04-15T09:49:21.050Z,75.03
2023-04-15T09:52:04.949Z,75.08
2023-04-15T09:54:40.278Z,75.21
2023-04-15T09:57:13.257Z,75.13
2023-04-15T09:59:45.509Z,74.50
2023-04-15T10:02:19.918Z,75.25
2023-04-15T10:04:53.819Z,75.04
2023-04-15T10:07:27.121Z,74.89
2023-04-15T10:10:02.082Z,75.40
2023-04-15T10:12:34.542Z,75.74
2023-04-15T10:15:12.369Z,75.05
2023-04-15T10:17:46.902Z,75.26
2023-04-15T10:20:23.699Z,75.42
2023-04-15T10:22:56.079Z,75.60
2023-04-15T10:25:29.672Z,75.24
2023-04-15T10:28:02.844Z,74.29
2023-04-15T10:30:35.757Z,74.13
2023-04-15T10:33:10.364Z,73.56
2023-04-15T10:35:43.367Z,74.35
2023-04-15T10:38:37.576Z,74.84
2023-04-15T10:41:21.994Z,75.06
2023-04-15T10:43:57.882Z,75.38
2023-04-15T10:46:41.680Z,75.48
2023-04-15T10:49:15.380Z,75.03
2023-04-15T10:51:53.043Z,75.01
2023-04-15T10:54:38.996Z,74.72
2023-04-15T10:57:16.449Z,73.67
2023-04-15T11:00:13.065Z,73.91
2023-04-15T11:02:50.041Z,71.71
2023-04-15T11:05:23.701Z,71.64
2023-04-15T11:07:57.318Z,71.95
2023-04-15T11:10:55.694Z,73.52
2023-04-15T11:13:31.543Z,73.93
2023-04-15T11:16:04.863Z,72.06
2023-04-15T11:18:38.049Z,71.03
2023-04-15T11:21:11.236Z,70.36
2023-04-15T11:24:02.887Z,70.61
2023-04-15T11:26:59.977Z,70.99
2023-04-15T11:29:33.513Z,70.88
2023-04-15T11:32:10.588Z,70.60
2023-04-15T11:34:43.006Z,70.62
2023-04-15T11:37:15.243Z,71.59
2023-04-15T11:39:50.794Z,73.16
2023-04-15T11:42:23.431Z,74.35
2023-04-15T11:45:09.911Z,74.18
2023-04-15T11:48:12.539Z,73.81
2023-04-15T11:54:52.092Z,74.13
2023-04-15T11:57:32.324Z,75.05
2023-04-15T12:00:05.603Z,73.53
2023-04-15T12:02:39.537Z,73.24
2023-04-15T12:05:13.047Z,72.94
2023-04-15T12:08:03.913Z,73.59
2023-04-15T12:10:36.126Z,74.49
2023-04-15T12:13:10.988Z,74.65
2023-04-15T12:15:43.796Z,74.54
2023-04-15T12:18:21.222Z,74.43
2023-04-15T12:20:54.725Z,74.67
2023-04-15T12:23:27.707Z,74.48
2023-04-15T12:26:00.349Z,74.84
2023-04-15T12:28:35.364Z,74.76
2023-04-15T12:31:10.604Z,74.16
2023-04-15T12:33:42.872Z,74.16
2023-04-15T12:36:15.448Z,74.45
2023-04-15T12:38:47.839Z,74.60
2023-04-15T12:41:21.203Z,74.79
2023-04-15T12:43:53.679Z,74.15
2023-04-15T12:46:27.278Z,74.72
2023-04-15T12:49:00.375Z,74.66
2023-04-15T12:51:32.952Z,74.28
2023-04-15T12:54:06.066Z,74.40
2023-04-15T12:56:38.881Z,75.48
2023-04-15T12:59:11.606Z,75.43
2023-04-15T13:01:43.844Z,75.38
2023-04-15T13:04:16.589Z,76.01
2023-04-15T13:06:49.136Z,75.74
2023-04-15T13:09:21.652Z,75.88
2023-04-15T13:11:54.655Z,74.68
2023-04-15T13:14:27.149Z,73.91
2023-04-15T13:17:00.601Z,73.96
2023-04-15T13:19:33.034Z,73.75
2023-04-15T13:22:05.480Z,73.55
2023-04-15T13:24:39.258Z,73.95
2023-04-15T13:27:11.971Z,74.33
2023-04-15T13:29:44.347Z,74.88
2023-04-15T13:32:16.487Z,75.40
2023-04-15T13:34:48.717Z,74.84
2023-04-15T13:37:21.166Z,74.97
2023-04-15T13:39:53.388Z,75.40
2023-04-15T13:42:26.359Z,75.23
2023-04-15T13:44:58.512Z,73.97
2023-04-15T13:47:30.862Z,75.02
2023-04-15T13:50:03.295Z,76.20
2023-04-15T13:52:35.612Z,76.20
2023-04-15T13:55:20.569Z,76.47
2023-04-15T13:57:54.504Z,76.55
2023-04-15T14:00:27.122Z,76.65
2023-04-15T14:02:59.658Z,76.80
2023-04-15T14:05:32.370Z,76.51
2023-04-15T14:08:05.084Z,75.90
2023-04-15T14:10:37.968Z,76.50
2023-04-15T14:13:10.178Z,77.11
2023-04-15T14:15:42.322Z,76.43
2023-04-15T14:18:14.442Z,77.14
2023-04-15T14:20:46.940Z,76.34
2023-04-15T14:23:19.438Z,76.59
2023-04-15T14:25:53.052Z,76.02
2023-04-15T14:28:25.812Z,76.14
2023-04-15T14:30:58.753Z,75.81
2023-04-15T14:33:31.197Z,75.68
2023-04-15T14:36:03.552Z,75.95
2023-04-15T14:38:38.692Z,76.43
2023-04-15T14:41:11.177Z,76.53
2023-04-15T14:43:43.770Z,76.87
2023-04-15T14:46:18.701Z,76.99
2023-04-15T14:48:51.145Z,77.27
2023-04-15T14:51:24.220Z,77.83
2023-04-15T14:53:56.659Z,77.58
2023-04-15T14:56:28.953Z,76.86
2023-04-15T14:59:01.386Z,77.14
2023-04-15T15:01:35.051Z,78.33
2023-04-15T15:04:07.467Z,78.31
2023-04-15T15:06:40.816Z,79.42
2023-04-15T15:09:13.258Z,79.20
2023-04-15T15:11:45.305Z,78.45
2023-04-15T15:14:17.825Z,78.72
2023-04-15T15:16:53.146Z,78.77
2023-04-15T15:19:25.317Z,78.57
2023-04-15T15:21:57.540Z,78.82
2023-04-15T15:24:29.924Z,78.34
2023-04-15T15:27:03.018Z,78.26
2023-04-15T15:29:35.640Z,78.63
2023-04-15T15:32:08.379Z,79.39
2023-04-15T15:34:40.849Z,79.56
2023-04-15T15:37:12.956Z,78.81
2023-04-15T15:39:45.494Z,79.77
2023-04-15T15:42:17.631Z,79.85
2023-04-15T15:44:50.288Z,79.70
2023-04-15T15:47:24.190Z,79.64
2023-04-15T15:49:57.296Z,79.75
2023-04-15T15:52:29.754Z,79.52
2023-04-15T15:55:02.229Z,79.72
2023-04-15T15:57:34.493Z,79.51
2023-04-15T16:00:12.833Z,79.19
2023-04-15T16:05:21.555Z,78.62
2023-04-15T16:07:54.088Z,78.59
2023-04-15T16:10:26.366Z,78.86
2023-04-15T16:12:58.502Z,78.83
2023-04-15T16:15:30.815Z,78.84
2023-04-15T16:18:02.998Z,77.51
2023-04-15T16:20:35.254Z,77.24
2023-04-15T16:23:13.461Z,77.70
2023-04-15T16:25:46.608Z,77.78
2023-04-15T16:28:26.513Z,78.06
2023-04-15T16:31:00.163Z,78.32
2023-04-15T16:33:33.302Z,78.76
2023-04-15T16:36:06.217Z,78.34
2023-04-15T16:38:38.545Z,78.22
2023-04-15T16:41:11.534Z,78.00
2023-04-15T16:43:43.692Z,78.52
2023-04-15T16:46:16.242Z,78.31
2023-04-15T16:48:49.103Z,78.86
2023-04-15T16:51:21.509Z,78.64
2023-04-15T16:53:54.265Z,78.62
2023-04-15T16:56:26.608Z,78.50
2023-04-15T16:58:59.077Z,78.61
2023-04-15T17:01:32.212Z,78.57
2023-04-15T17:04:05.721Z,78.38
2023-04-15T17:06:38.213Z,78.55
2023-04-15T17:09:10.431Z,78.45
2023-04-15T17:11:44.571Z,78.50
2023-04-15T17:14:16.838Z,78.37
2023-04-15T17:16:49.263Z,78.87
2023-04-15T17:19:21.650Z,78.46
2023-04-15T17:21:55.278Z,78.61
2023-04-15T17:24:27.500Z,78.75
2023-04-15T17:27:02.644Z,78.46
2023-04-15T17:29:36.390Z,78.46
2023-04-15T17:32:10.396Z,78.42
2023-04-15T17:34:50.239Z,78.06
2023-04-15T17:37:23.755Z,78.28
2023-04-15T17:39:56.203Z,78.23
2023-04-15T17:42:28.751Z,78.38
2023-04-15T17:45:01.266Z,78.37
2023-04-15T17:47:33.598Z,77.83
2023-04-15T17:50:06.977Z,77.89
2023-04-15T17:52:39.543Z,78.49
2023-04-15T17:55:12.838Z,78.62
2023-04-15T17:57:47.584Z,78.53
2023-04-15T18:00:20.619Z,78.48
2023-04-15T18:02:54.274Z,78.44
2023-04-15T18:05:27.007Z,78.26
2023-04-15T18:07:59.361Z,78.28
2023-04-15T18:10:32.028Z,78.53
2023-04-15T18:13:04.329Z,78.91
2023-04-15T18:15:37.668Z,78.92
2023-04-15T18:18:10.375Z,78.85
2023-04-15T18:20:42.990Z,78.77
2023-04-15T18:23:15.700Z,78.61
2023-04-15T18:25:48.902Z,78.72
2023-04-15T18:28:22.600Z,78.80
2023-04-15T18:30:56.683Z,78.97
2023-04-15T18:33:29.052Z,79.04
2023-04-15T18:36:02.669Z,78.93
2023-04-15T18:38:35.169Z,79.34
2023-04-15T18:41:09.991Z,78.86
2023-04-15T18:43:42.429Z,78.59
2023-04-15T18:46:15.363Z,78.60
2023-04-15T18:48:47.677Z,78.29
2023-04-15T18:51:20.210Z,78.46
2023-04-15T18:53:52.813Z,78.88
2023-04-15T18:56:25.258Z,79.47
2023-04-15T18:59:09.276Z,79.60
2023-04-15T19:01:49.777Z,79.43
2023-04-15T19:04:22.538Z,79.22
2023-04-15T19:06:55.183Z,79.15
2023-04-15T19:09:27.870Z,79.11
2023-04-15T19:12:00.406Z,79.00
2023-04-15T19:14:32.894Z,79.01
2023-04-15T19:17:05.423Z,79.24
2023-04-15T19:19:38.574Z,79.19
2023-04-15T19:22:11.365Z,79.42
2023-04-15T19:24:43.667Z,79.20
2023-04-15T19:27:15.957Z,79.11
2023-04-15T19:29:47.983Z,78.94
2023-04-15T19:32:24.097Z,79.11
2023-04-15T19:34:56.876Z,78.99
2023-04-15T19:37:29.580Z,79.26
2023-04-15T19:40:02.206Z,79.10
2023-04-15T19:42:34.958Z,78.69
2023-04-15T19:45:08.568Z,78.54
2023-04-15T19:47:40.876Z,78.59
2023-04-15T19:50:15.687Z,78.29
2023-04-15T19:52:47.856Z,78.41
2023-04-15T19:55:20.980Z,78.65
2023-04-15T19:57:53.312Z,79.01
2023-04-15T20:00:26.232Z,79.12
2023-04-15T20:02:59.644Z,79.05
2023-04-15T20:05:32.249Z,78.96
2023-04-15T20:08:05.557Z,78.63
2023-04-15T20:10:38.922Z,78.40
2023-04-15T20:13:11.555Z,78.25
2023-04-15T20:15:44.819Z,78.22
2023-04-15T20:18:17.232Z,77.86
2023-04-15T20:20:49.971Z,77.78
2023-04-15T20:23:22.268Z,77.49
2023-04-15T20:25:54.924Z,77.34
2023-04-15T20:28:27.835Z,77.44
2023-04-15T20:31:01.921Z,77.67
2023-04-15T20:33:34.422Z,77.95
2023-04-15T20:36:07.669Z,77.74
2023-04-15T20:38:40.143Z,77.84
2023-04-15T20:41:12.620Z,77.58
2023-04-15T20:43:44.801Z,77.26
2023-04-15T20:46:20.971Z,77.25
2023-04-15T20:48:54.014Z,77.11
2023-04-15T20:51:27.543Z,76.94
2023-04-15T20:53:59.654Z,77.24
2023-04-15T20:56:31.838Z,77.28
2023-04-15T20:59:04.514Z,77.50
2023-04-15T21:01:37.000Z,77.29
2023-04-15T21:04:09.313Z,77.53
2023-04-15T21:06:41.955Z,77.31
2023-04-15T21:09:14.526Z,77.51
2023-04-15T21:14:25.105Z,77.65
2023-04-15T21:16:58.081Z,77.56
2023-04-15T21:19:30.508Z,77.54
2023-04-15T21:22:02.750Z,77.46
2023-04-15T21:24:34.800Z,77.46
2023-04-15T21:27:07.143Z,77.46
2023-04-15T21:29:40.471Z,77.58
2023-04-15T21:32:12.989Z,77.59
2023-04-15T21:34:45.375Z,77.60
2023-04-15T21:37:17.743Z,77.83
2023-04-15T21:39:50.693Z,77.88
2023-04-15T21:42:23.010Z,77.83
2023-04-15T21:44:55.732Z,77.84
2023-04-15T21:47:27.839Z,77.88
2023-04-15T21:50:00.446Z,78.23
2023-04-15T21:52:32.744Z,78.34
2023-04-15T21:55:04.963Z,78.03
2023-04-15T21:57:37.273Z,77.95
2023-04-15T22:00:11.712Z,78.00
2023-04-15T22:02:44.532Z,77.60
2023-04-15T22:05:16.966Z,77.69
2023-04-15T22:07:49.344Z,77.73
2023-04-15T22:10:21.986Z,77.64
2023-04-15T22:12:54.706Z,77.68
2023-04-15T22:15:27.020Z,77.52
2023-04-15T22:17:59.173Z,77.50
2023-04-15T22:20:31.498Z,77.23
2023-04-15T22:23:07.689Z,77.17
2023-04-15T22:25:40.568Z,76.82
2023-04-15T22:28:13.501Z,77.11
2023-04-15T22:30:46.165Z,77.04
2023-04-15T22:33:18.399Z,76.97
2023-04-15T22:35:50.753Z,77.31
2023-04-15T22:38:23.370Z,77.51
2023-04-15T22:40:56.015Z,76.79
2023-04-15T22:43:28.493Z,76.62
2023-04-15T22:46:01.073Z,76.42
2023-04-15T22:48:33.722Z,76.49
2023-04-15T22:51:06.519Z,76.27
2023-04-15T22:53:38.782Z,76.56
2023-04-15T22:56:11.435Z,76.55
2023-04-15T22:58:44.343Z,77.03
2023-04-15T23:01:17.913Z,77.72
2023-04-15T23:03:55.741Z,77.48
2023-04-15T23:06:29.586Z,77.68
2023-04-15T23:09:02.439Z,77.78
2023-04-15T23:11:35.557Z,77.79
2023-04-15T23:14:07.959Z,77.82
2023-04-15T23:16:40.742Z,78.14
2023-04-15T23:19:13.022Z,78.20
2023-04-15T23:21:45.677Z,78.03
2023-04-15T23:24:18.065Z,78.16
2023-04-15T23:26:50.625Z,78.16
2023-04-15T23:29:23.158Z,78.01
2023-04-15T23:31:55.538Z,77.93
2023-04-15T23:34:27.998Z,78.07
2023-04-15T23:37:00.535Z,77.90
2023-04-15T23:39:33.029Z,77.90
2023-04-15T23:42:06.316Z,78.04
2023-04-15T23:44:38.701Z,77.62
2023-04-15T23:47:11.272Z,77.71
2023-04-15T23:49:43.768Z,77.80
2023-04-15T23:52:16.103Z,77.99
2023-04-15T23:54:48.439Z,78.12
2023-04-15T23:57:21.067Z,78.28
2023-04-15T23:59:54.078Z,78.13
